createdAt,value
2023-05-14T00:01:48.477Z,8.90
2023-05-14T00:04:16.412Z,8.90
2023-05-14T00:06:44.266Z,8.90
2023-05-14T00:09:14.027Z,8.90
2023-05-14T00:11:41.878Z,8.90
2023-05-14T00:14:09.933Z,9.00
2023-05-14T00:16:37.900Z,8.90
2023-05-14T00:19:06.610Z,8.90
2023-05-14T00:21:34.564Z,9.00
2023-05-14T00:24:02.532Z,9.00
2023-05-14T00:26:31.880Z,9.00
2023-05-14T00:28:59.851Z,9.00
2023-05-14T00:31:27.760Z,9.00
2023-05-14T00:33:55.723Z,9.00
2023-05-14T00:36:23.906Z,9.00
2023-05-14T00:38:51.804Z,8.90
2023-05-14T00:41:19.763Z,8.90
2023-05-14T00:43:49.100Z,8.90
2023-05-14T00:46:17.435Z,8.90
2023-05-14T00:48:46.272Z,8.80
2023-05-14T00:51:14.390Z,8.80
2023-05-14T00:53:42.804Z,8.80
2023-05-14T00:56:11.180Z,8.70
2023-05-14T00:58:39.434Z,8.70
2023-05-14T01:01:08.817Z,8.70
2023-05-14T01:03:37.582Z,8.60
2023-05-14T01:06:13.045Z,8.60
2023-05-14T01:08:47.937Z,8.50
2023-05-14T01:11:23.603Z,8.50
2023-05-14T01:14:01.305Z,8.50
2023-05-14T01:16:32.598Z,8.50
2023-05-14T01:19:02.760Z,8.40
2023-05-14T01:21:41.050Z,8.30
2023-05-14T01:24:09.593Z,8.30
2023-05-14T01:26:37.720Z,8.20
2023-05-14T01:29:14.971Z,8.20
2023-05-14T01:31:46.544Z,8.20
2023-05-14T01:34:17.437Z,8.10
2023-05-14T01:36:48.261Z,8.00
2023-05-14T01:39:16.881Z,8.00
2023-05-14T01:41:46.725Z,8.00
2023-05-14T01:44:15.163Z,7.90
2023-05-14T01:46:43.418Z,7.90
2023-05-14T01:49:11.302Z,7.80
2023-05-14T01:51:39.261Z,7.80
2023-05-14T01:54:08.620Z,7.70
2023-05-14T01:56:36.561Z,7.70
2023-05-14T01:59:04.590Z,7.60
2023-05-14T02:01:32.587Z,7.60
2023-05-14T02:04:01.168Z,7.50
2023-05-14T02:06:29.245Z,7.50
2023-05-14T02:08:57.178Z,7.40
2023-05-14T02:11:26.476Z,7.40
2023-05-14T02:13:54.487Z,7.40
2023-05-14T02:16:22.562Z,7.30
2023-05-14T02:18:50.740Z,7.30
2023-05-14T02:21:18.699Z,7.20
2023-05-14T02:23:48.487Z,7.20
2023-05-14T02:26:16.430Z,7.20
2023-05-14T02:28:45.919Z,7.10
2023-05-14T02:31:14.402Z,7.10
2023-05-14T02:33:42.437Z,7.10
2023-05-14T02:36:10.384Z,7.00
2023-05-14T02:38:38.269Z,7.00
2023-05-14T02:41:06.249Z,7.00
2023-05-14T02:43:34.283Z,7.00
2023-05-14T02:46:03.793Z,7.00
2023-05-14T02:48:31.712Z,7.00
2023-05-14T02:50:59.631Z,6.90
2023-05-14T02:53:27.611Z,6.90
2023-05-14T02:55:55.995Z,6.90
2023-05-14T02:58:28.094Z,6.90
2023-05-14T03:00:56.602Z,6.90
2023-05-14T03:03:26.428Z,6.80
2023-05-14T03:05:55.101Z,6.80
2023-05-14T03:08:23.326Z,6.80
2023-05-14T03:10:51.345Z,6.70
2023-05-14T03:13:20.945Z,6.70
2023-05-14T03:15:49.087Z,6.70
2023-05-14T03:18:17.371Z,6.70
2023-05-14T03:20:46.649Z,6.70
2023-05-14T03:23:14.906Z,6.80
2023-05-14T03:25:43.105Z,6.90
2023-05-14T03:28:11.233Z,6.90
2023-05-14T03:30:39.234Z,6.90
2023-05-14T03:33:07.312Z,7.00
2023-05-14T03:35:35.321Z,7.10
2023-05-14T03:38:04.730Z,7.10
2023-05-14T03:40:32.604Z,7.20
2023-05-14T03:43:00.786Z,7.30
2023-05-14T03:45:30.459Z,7.40
2023-05-14T03:47:58.521Z,7.40
2023-05-14T03:50:26.748Z,7.50
2023-05-14T03:52:55.040Z,7.60
2023-05-14T03:55:24.763Z,7.70
2023-05-14T03:57:52.707Z,7.90
2023-05-14T04:00:21.517Z,8.00
2023-05-14T04:02:49.707Z,8.00
2023-05-14T04:05:17.882Z,8.20
2023-05-14T04:07:46.394Z,8.30
2023-05-14T04:10:15.007Z,8.40
2023-05-14T04:12:44.453Z,8.60
2023-05-14T04:15:12.803Z,8.70
2023-05-14T04:17:40.806Z,8.80
2023-05-14T04:20:09.747Z,8.90
2023-05-14T04:22:37.732Z,9.10
2023-05-14T04:25:06.377Z,9.20
2023-05-14T04:27:35.015Z,9.30
2023-05-14T04:30:04.782Z,9.40
2023-05-14T04:32:32.832Z,9.50
2023-05-14T04:35:01.109Z,9.70
2023-05-14T04:37:29.069Z,9.80
2023-05-14T04:39:56.950Z,10.00
2023-05-14T04:42:25.584Z,10.20
2023-05-14T04:44:53.581Z,10.40
2023-05-14T04:47:23.333Z,10.50
2023-05-14T04:49:51.341Z,10.70
2023-05-14T04:52:19.433Z,10.90
2023-05-14T04:54:47.419Z,11.10
2023-05-14T04:57:15.544Z,11.30
2023-05-14T04:59:43.672Z,11.60
2023-05-14T05:02:11.606Z,11.90
2023-05-14T05:04:41.124Z,12.10
2023-05-14T05:07:09.389Z,12.30
2023-05-14T05:09:37.416Z,12.60
2023-05-14T05:12:05.930Z,12.70
2023-05-14T05:14:33.992Z,13.00
2023-05-14T05:17:02.095Z,13.30
2023-05-14T05:19:42.456Z,13.50
2023-05-14T05:22:13.557Z,13.70
2023-05-14T05:24:41.475Z,14.10
2023-05-14T05:27:09.401Z,14.30
2023-05-14T05:29:37.840Z,14.40
2023-05-14T05:32:06.600Z,14.50
2023-05-14T05:34:35.039Z,14.60
2023-05-14T05:37:03.530Z,14.80
2023-05-14T05:39:35.073Z,14.90
2023-05-14T05:42:03.714Z,15.10
2023-05-14T05:44:31.672Z,15.30
2023-05-14T05:46:59.700Z,15.50
2023-05-14T05:49:27.895Z,15.50
2023-05-14T05:51:55.932Z,15.60
2023-05-14T05:54:25.530Z,15.80
2023-05-14T05:56:54.883Z,16.10
2023-05-14T05:59:22.845Z,16.20
2023-05-14T06:01:50.924Z,16.30
2023-05-14T06:04:18.947Z,16.20
2023-05-14T06:06:47.109Z,16.20
2023-05-14T06:09:15.090Z,16.10
2023-05-14T06:11:42.974Z,16.00
2023-05-14T06:14:12.498Z,15.80
2023-05-14T06:16:40.461Z,15.60
2023-05-14T06:19:08.787Z,15.60
2023-05-14T06:21:36.795Z,15.60
2023-05-14T06:24:05.106Z,15.60
2023-05-14T06:26:33.005Z,15.80
2023-05-14T06:29:01.145Z,15.90
2023-05-14T06:31:30.636Z,16.00
2023-05-14T06:33:58.623Z,15.90
2023-05-14T06:36:26.614Z,15.80
2023-05-14T06:38:54.542Z,15.80
2023-05-14T06:41:22.656Z,15.70
2023-05-14T06:43:50.690Z,15.60
2023-05-14T06:46:18.546Z,15.50
2023-05-14T06:48:47.812Z,15.60
2023-05-14T06:51:15.786Z,15.60
2023-05-14T06:53:43.742Z,15.60
2023-05-14T06:56:12.982Z,15.70
2023-05-14T06:58:41.225Z,15.80
2023-05-14T07:01:09.186Z,15.90
2023-05-14T07:03:37.216Z,15.90
2023-05-14T07:06:07.887Z,16.00
2023-05-14T07:08:36.126Z,16.00
2023-05-14T07:11:04.200Z,16.10
2023-05-14T07:13:32.145Z,16.20
2023-05-14T07:16:00.161Z,16.30
2023-05-14T07:18:28.187Z,16.30
2023-05-14T07:20:56.244Z,16.50
2023-05-14T07:23:25.488Z,16.50
2023-05-14T07:25:53.662Z,16.60
2023-05-14T07:28:21.564Z,16.50
2023-05-14T07:30:49.506Z,16.50
2023-05-14T07:33:17.292Z,16.60
2023-05-14T07:35:45.221Z,16.60
2023-05-14T07:38:13.135Z,16.80
2023-05-14T07:40:43.503Z,17.00
2023-05-14T07:43:11.891Z,17.20
2023-05-14T07:45:40.142Z,17.50
2023-05-14T07:48:08.277Z,17.60
2023-05-14T07:50:36.212Z,17.90
2023-05-14T07:53:04.113Z,18.10
2023-05-14T07:55:32.182Z,18.20
2023-05-14T07:58:01.395Z,18.40
2023-05-14T08:00:29.438Z,18.50
2023-05-14T08:02:57.488Z,18.80
2023-05-14T08:05:26.523Z,19.00
2023-05-14T08:07:54.396Z,19.10
2023-05-14T08:10:22.845Z,19.20
2023-05-14T08:12:50.902Z,19.50
2023-05-14T08:15:20.416Z,19.50
2023-05-14T08:17:48.330Z,19.70
2023-05-14T08:20:16.316Z,20.10
2023-05-14T08:22:44.185Z,20.40
2023-05-14T08:25:12.231Z,20.40
2023-05-14T08:27:41.146Z,20.50
2023-05-14T08:30:09.838Z,20.40
2023-05-14T08:32:39.428Z,20.40
2023-05-14T08:35:08.384Z,20.20
2023-05-14T08:37:36.314Z,20.30
2023-05-14T08:40:04.582Z,20.40
2023-05-14T08:42:33.015Z,20.50
2023-05-14T08:45:03.033Z,20.50
2023-05-14T08:47:31.854Z,20.50
2023-05-14T08:50:04.432Z,20.60
2023-05-14T08:52:33.095Z,20.90
2023-05-14T08:55:04.105Z,21.20
2023-05-14T08:57:34.408Z,21.20
2023-05-14T09:00:07.255Z,21.20
2023-05-14T09:02:36.026Z,21.20
2023-05-14T09:05:07.426Z,21.40
2023-05-14T09:07:35.537Z,21.60
2023-05-14T09:10:04.148Z,21.80
2023-05-14T09:12:32.278Z,21.80
2023-05-14T09:15:00.240Z,22.10
2023-05-14T09:17:28.634Z,22.20
2023-05-14T09:19:57.401Z,22.30
2023-05-14T09:22:31.919Z,22.40
2023-05-14T09:25:07.450Z,22.40
2023-05-14T09:27:36.194Z,22.40
2023-05-14T09:30:09.252Z,22.30
2023-05-14T09:32:38.553Z,22.30
2023-05-14T09:35:14.737Z,22.20
2023-05-14T09:37:45.090Z,21.90
2023-05-14T09:40:13.783Z,21.90
2023-05-14T09:42:42.064Z,21.80
2023-05-14T09:45:11.012Z,21.70
2023-05-14T09:47:39.845Z,21.70
2023-05-14T09:50:09.313Z,21.70
2023-05-14T09:52:37.384Z,21.90
2023-05-14T09:55:08.010Z,21.90
2023-05-14T09:57:36.850Z,21.80
2023-05-14T10:00:05.734Z,21.80
2023-05-14T10:02:38.816Z,21.80
2023-05-14T10:05:08.232Z,21.60
2023-05-14T10:07:41.722Z,21.70
2023-05-14T10:10:14.664Z,21.70
2023-05-14T10:12:44.785Z,21.90
2023-05-14T10:15:18.765Z,21.90
2023-05-14T10:17:53.686Z,21.90
2023-05-14T10:20:23.952Z,22.00
2023-05-14T10:22:52.718Z,22.00
2023-05-14T10:25:22.934Z,22.00
2023-05-14T10:27:51.214Z,21.70
2023-05-14T10:30:23.075Z,21.50
2023-05-14T10:32:51.276Z,21.30
2023-05-14T10:35:25.297Z,21.10
2023-05-14T10:37:53.387Z,21.20
2023-05-14T10:40:26.067Z,21.30
2023-05-14T10:42:55.867Z,21.50
2023-05-14T10:45:25.118Z,21.60
2023-05-14T10:47:53.081Z,21.80
2023-05-14T10:50:23.706Z,21.90
2023-05-14T10:52:53.189Z,21.90
2023-05-14T10:55:23.097Z,21.80
2023-05-14T10:57:51.128Z,21.70
2023-05-14T11:00:19.536Z,21.70
2023-05-14T11:02:47.582Z,21.60
2023-05-14T11:05:17.651Z,21.60
2023-05-14T11:07:47.304Z,21.60
2023-05-14T11:10:16.528Z,21.50
2023-05-14T11:12:47.068Z,21.40
2023-05-14T11:15:18.280Z,21.30
2023-05-14T11:17:48.255Z,21.10
2023-05-14T11:20:16.657Z,20.90
2023-05-14T11:22:45.710Z,20.90
2023-05-14T11:25:15.123Z,20.90
2023-05-14T11:27:45.879Z,20.90
2023-05-14T11:30:15.815Z,20.90
2023-05-14T11:32:45.727Z,21.00
2023-05-14T11:35:14.522Z,21.20
2023-05-14T11:37:43.778Z,21.40
2023-05-14T11:40:17.404Z,21.60
2023-05-14T11:42:46.832Z,21.70
2023-05-14T11:45:15.502Z,21.70
2023-05-14T11:47:43.605Z,21.70
2023-05-14T11:50:12.188Z,21.60
2023-05-14T11:52:41.945Z,21.50
2023-05-14T11:55:12.761Z,21.40
2023-05-14T11:57:41.480Z,21.20
2023-05-14T12:00:13.503Z,21.10
2023-05-14T12:02:41.722Z,21.20
2023-05-14T12:05:13.820Z,21.10
2023-05-14T12:07:41.953Z,21.00
2023-05-14T12:10:12.905Z,21.00
2023-05-14T12:12:40.907Z,21.00
2023-05-14T12:15:17.440Z,21.00
2023-05-14T12:17:51.750Z,21.00
2023-05-14T12:20:20.138Z,21.00
2023-05-14T12:22:48.310Z,20.90
2023-05-14T12:25:16.176Z,20.90
2023-05-14T12:27:46.542Z,20.90
2023-05-14T12:30:21.905Z,20.80
2023-05-14T12:32:51.813Z,20.70
2023-05-14T12:35:20.251Z,20.90
2023-05-14T12:37:48.147Z,21.00
2023-05-14T12:40:16.079Z,20.90
2023-05-14T12:42:44.004Z,20.90
2023-05-14T12:45:13.422Z,20.90
2023-05-14T12:47:42.748Z,20.90
2023-05-14T12:50:11.189Z,20.90
2023-05-14T12:52:39.895Z,20.90
2023-05-14T12:55:09.247Z,21.00
2023-05-14T12:57:39.115Z,21.20
2023-05-14T13:00:21.152Z,21.60
2023-05-14T13:02:50.517Z,22.10
2023-05-14T13:05:18.577Z,22.50
2023-05-14T13:07:46.504Z,22.90
2023-05-14T13:10:14.372Z,23.00
2023-05-14T13:12:42.240Z,22.70
2023-05-14T13:15:11.547Z,22.40
2023-05-14T13:17:40.381Z,22.20
2023-05-14T13:20:10.918Z,22.00
2023-05-14T13:22:38.875Z,21.70
2023-05-14T13:25:07.916Z,21.40
2023-05-14T13:27:36.945Z,21.20
2023-05-14T13:30:05.283Z,21.00
2023-05-14T13:32:33.341Z,20.80
2023-05-14T13:35:01.273Z,20.60
2023-05-14T13:37:30.517Z,20.50
2023-05-14T13:39:58.393Z,20.50
2023-05-14T13:42:27.144Z,20.40
2023-05-14T13:44:56.333Z,20.30
2023-05-14T13:47:24.431Z,20.30
2023-05-14T13:49:52.878Z,20.30
2023-05-14T13:52:21.190Z,20.30
2023-05-14T13:54:50.442Z,20.20
2023-05-14T13:57:18.289Z,20.20
2023-05-14T13:59:47.595Z,20.10
2023-05-14T14:02:16.776Z,20.20
2023-05-14T14:04:44.714Z,20.20
2023-05-14T14:07:12.699Z,20.20
2023-05-14T14:09:40.776Z,20.20
2023-05-14T14:12:11.030Z,20.30
2023-05-14T14:14:39.127Z,20.30
2023-05-14T14:17:09.021Z,20.40
2023-05-14T14:19:36.986Z,20.60
2023-05-14T14:22:05.090Z,20.60
2023-05-14T14:24:33.104Z,20.60
2023-05-14T14:27:02.497Z,20.50
2023-05-14T14:29:32.069Z,20.40
2023-05-14T14:32:00.757Z,20.20
2023-05-14T14:34:28.800Z,20.10
2023-05-14T14:36:56.783Z,20.00
2023-05-14T14:39:25.416Z,19.80
2023-05-14T14:41:53.409Z,19.60
2023-05-14T14:44:21.353Z,19.50
2023-05-14T14:46:50.684Z,19.40
2023-05-14T14:49:18.821Z,19.30
2023-05-14T14:51:46.940Z,19.30
2023-05-14T14:54:14.896Z,19.30
2023-05-14T14:56:43.415Z,19.30
2023-05-14T14:59:11.301Z,19.40
2023-05-14T15:01:39.314Z,19.50
2023-05-14T15:04:08.799Z,19.60
2023-05-14T15:06:36.755Z,19.70
2023-05-14T15:09:04.908Z,19.80
2023-05-14T15:11:32.777Z,19.80
2023-05-14T15:14:00.653Z,19.90
2023-05-14T15:16:28.622Z,20.00
2023-05-14T15:18:56.601Z,20.10
2023-05-14T15:21:26.006Z,20.20
2023-05-14T15:23:53.900Z,20.20
2023-05-14T15:26:22.975Z,20.20
2023-05-14T15:28:50.898Z,20.30
2023-05-14T15:31:18.885Z,20.50
2023-05-14T15:33:46.797Z,20.50
2023-05-14T15:36:15.164Z,20.60
2023-05-14T15:38:44.576Z,20.50
2023-05-14T15:41:12.511Z,20.50
2023-05-14T15:43:40.411Z,20.60
2023-05-14T15:46:08.454Z,20.70
2023-05-14T15:48:36.830Z,20.60
2023-05-14T15:51:04.933Z,20.60
2023-05-14T15:53:32.877Z,20.60
2023-05-14T15:56:02.132Z,20.60
2023-05-14T15:58:29.975Z,20.60
2023-05-14T16:00:58.606Z,20.60
2023-05-14T16:03:26.732Z,20.60
2023-05-14T16:05:54.742Z,20.70
2023-05-14T16:08:23.764Z,20.70
2023-05-14T16:10:51.664Z,20.60
2023-05-14T16:13:20.934Z,20.50
2023-05-14T16:15:49.519Z,20.40
2023-05-14T16:18:17.524Z,20.30
2023-05-14T16:20:45.457Z,20.20
2023-05-14T16:23:13.386Z,20.10
2023-05-14T16:25:41.280Z,20.00
2023-05-14T16:28:09.242Z,19.90
2023-05-14T16:30:38.524Z,19.80
2023-05-14T16:33:06.596Z,19.70
2023-05-14T16:35:34.662Z,19.60
2023-05-14T16:38:02.706Z,19.50
2023-05-14T16:40:30.693Z,19.50
2023-05-14T16:42:58.658Z,19.50
2023-05-14T16:45:26.606Z,19.50
2023-05-14T16:47:56.251Z,19.40
2023-05-14T16:50:24.444Z,19.40
2023-05-14T16:52:52.391Z,19.40
2023-05-14T16:55:20.607Z,19.30
2023-05-14T16:57:48.523Z,19.30
2023-05-14T17:00:17.925Z,19.20
2023-05-14T17:02:49.060Z,19.10
2023-05-14T17:05:18.609Z,19.00
2023-05-14T17:07:46.542Z,18.90
2023-05-14T17:10:14.610Z,18.80
2023-05-14T17:12:42.528Z,18.70
2023-05-14T17:15:11.591Z,18.50
2023-05-14T17:17:39.523Z,18.40
2023-05-14T17:20:08.392Z,18.30
2023-05-14T17:22:37.806Z,18.20
2023-05-14T17:25:06.462Z,18.10
2023-05-14T17:27:34.384Z,18.10
2023-05-14T17:30:02.283Z,18.00
2023-05-14T17:32:31.212Z,18.00
2023-05-14T17:34:59.388Z,17.90
2023-05-14T17:37:27.571Z,17.60
2023-05-14T17:39:56.842Z,17.60
2023-05-14T17:42:24.806Z,17.40
2023-05-14T17:44:53.746Z,17.30
2023-05-14T17:47:22.343Z,17.20
2023-05-14T17:49:50.893Z,17.10
2023-05-14T17:52:19.140Z,17.00
2023-05-14T17:54:47.102Z,16.90
2023-05-14T17:57:16.463Z,16.70
2023-05-14T17:59:44.371Z,16.60
2023-05-14T18:02:12.277Z,16.50
2023-05-14T18:04:40.241Z,16.40
2023-05-14T18:07:08.484Z,16.30
2023-05-14T18:09:36.492Z,16.20
2023-05-14T18:12:04.468Z,16.20
2023-05-14T18:14:33.760Z,16.10
2023-05-14T18:17:01.791Z,16.00
2023-05-14T18:19:29.770Z,15.90
2023-05-14T18:21:57.796Z,15.90
2023-05-14T18:24:26.164Z,15.80
2023-05-14T18:26:54.206Z,15.70
2023-05-14T18:29:22.167Z,15.60
2023-05-14T18:31:51.393Z,15.50
2023-05-14T18:34:19.470Z,15.40
2023-05-14T18:36:47.410Z,15.30
2023-05-14T18:39:15.374Z,15.20
2023-05-14T18:41:43.311Z,15.10
2023-05-14T18:44:11.298Z,15.00
2023-05-14T18:46:39.450Z,14.90
2023-05-14T18:49:08.979Z,14.90
2023-05-14T18:51:36.890Z,14.80
2023-05-14T18:54:05.054Z,14.70
2023-05-14T18:56:32.993Z,14.50
2023-05-14T18:59:00.979Z,14.40
2023-05-14T19:01:29.037Z,14.30
2023-05-14T19:03:57.137Z,14.20
2023-05-14T19:06:26.619Z,14.10
2023-05-14T19:08:54.629Z,14.00
2023-05-14T19:11:22.780Z,13.80
2023-05-14T19:13:50.763Z,13.60
2023-05-14T19:16:18.916Z,13.50
2023-05-14T19:18:46.993Z,13.30
2023-05-14T19:21:16.040Z,13.20
2023-05-14T19:23:45.555Z,13.10
2023-05-14T19:26:13.482Z,12.90
2023-05-14T19:28:41.679Z,12.80
2023-05-14T19:31:09.720Z,12.60
2023-05-14T19:33:37.740Z,12.50
2023-05-14T19:36:06.641Z,12.40
2023-05-14T19:38:34.841Z,12.30
2023-05-14T19:41:04.099Z,12.20
2023-05-14T19:43:32.198Z,12.10
2023-05-14T19:46:01.628Z,12.00
2023-05-14T19:48:29.682Z,11.90
2023-05-14T19:50:57.554Z,11.80
2023-05-14T19:53:29.829Z,11.70
2023-05-14T19:55:58.089Z,11.60
2023-05-14T19:58:27.706Z,11.50
2023-05-14T20:00:57.355Z,11.40
2023-05-14T20:03:26.689Z,11.30
2023-05-14T20:05:55.014Z,11.20
2023-05-14T20:08:22.907Z,11.10
2023-05-14T20:10:50.799Z,11.10
2023-05-14T20:13:18.673Z,11.00
2023-05-14T20:15:48.018Z,11.00
2023-05-14T20:18:16.103Z,10.90
2023-05-14T20:20:44.377Z,10.90
2023-05-14T20:23:12.343Z,10.80
2023-05-14T20:25:41.357Z,10.70
2023-05-14T20:28:09.448Z,10.70
2023-05-14T20:30:37.675Z,10.70
2023-05-14T20:33:08.183Z,10.70
2023-05-14T20:35:36.282Z,10.70
2023-05-14T20:38:04.439Z,10.70
2023-05-14T20:40:32.831Z,10.70
2023-05-14T20:43:01.756Z,10.80
2023-05-14T20:45:29.654Z,10.70
2023-05-14T20:47:57.584Z,10.70
2023-05-14T20:50:27.875Z,10.70
2023-05-14T20:52:56.692Z,10.70
2023-05-14T20:55:24.722Z,10.60
2023-05-14T20:57:52.785Z,10.50
2023-05-14T21:00:21.536Z,10.50
2023-05-14T21:02:49.971Z,10.50
2023-05-14T21:05:18.212Z,10.40
2023-05-14T21:07:47.596Z,10.40
2023-05-14T21:10:16.316Z,10.30
2023-05-14T21:12:44.891Z,10.30
2023-05-14T21:15:13.487Z,10.20
2023-05-14T21:17:41.484Z,10.20
2023-05-14T21:20:11.993Z,10.10
2023-05-14T21:22:39.960Z,10.00
2023-05-14T21:25:10.040Z,10.00
2023-05-14T21:27:38.240Z,9.90
2023-05-14T21:30:09.005Z,9.90
2023-05-14T21:32:37.008Z,9.80
2023-05-14T21:35:05.377Z,9.80
2023-05-14T21:37:33.789Z,9.70
2023-05-14T21:40:01.781Z,9.70
2023-05-14T21:42:31.072Z,9.60
2023-05-14T21:44:59.016Z,9.60
2023-05-14T21:47:27.714Z,9.50
2023-05-14T21:49:55.664Z,9.50
2023-05-14T21:52:23.526Z,9.40
2023-05-14T21:54:51.433Z,9.30
2023-05-14T21:57:19.431Z,9.30
2023-05-14T21:59:48.680Z,9.20
2023-05-14T22:02:16.658Z,9.20
2023-05-14T22:04:44.719Z,9.10
2023-05-14T22:07:12.670Z,9.10
2023-05-14T22:09:40.672Z,9.10
2023-05-14T22:12:09.243Z,9.00
2023-05-14T22:14:37.362Z,9.00
2023-05-14T22:17:07.157Z,8.90
2023-05-14T22:19:35.171Z,8.90
2023-05-14T22:22:03.118Z,8.80
2023-05-14T22:24:30.953Z,8.70
2023-05-14T22:26:58.850Z,8.70
2023-05-14T22:29:26.834Z,8.60
2023-05-14T22:31:54.899Z,8.60
2023-05-14T22:34:24.287Z,8.60
2023-05-14T22:36:52.206Z,8.50
2023-05-14T22:39:20.249Z,8.50
2023-05-14T22:41:54.804Z,8.40
2023-05-14T22:44:23.051Z,8.40
2023-05-14T22:46:51.717Z,8.30
2023-05-14T22:49:19.610Z,8.30
2023-05-14T22:51:48.950Z,8.30
2023-05-14T22:54:17.610Z,8.20
2023-05-14T22:56:46.348Z,8.20
2023-05-14T22:59:14.402Z,8.10
2023-05-14T23:01:42.414Z,8.10
2023-05-14T23:04:10.468Z,8.00
2023-05-14T23:06:38.756Z,8.00
2023-05-14T23:09:07.991Z,8.00
2023-05-14T23:11:35.950Z,7.90
2023-05-14T23:14:03.836Z,7.90
2023-05-14T23:16:31.864Z,7.80
2023-05-14T23:18:59.977Z,7.80
2023-05-14T23:21:28.016Z,7.80
2023-05-14T23:23:55.964Z,7.80
2023-05-14T23:26:25.648Z,7.80
2023-05-14T23:28:53.703Z,7.70
2023-05-14T23:31:22.234Z,7.70
2023-05-14T23:33:50.182Z,7.70
2023-05-14T23:36:18.072Z,7.70
2023-05-14T23:38:45.964Z,7.90
2023-05-14T23:41:13.966Z,7.90
2023-05-14T23:43:43.212Z,7.90
2023-05-14T23:46:11.244Z,7.80
2023-05-14T23:48:39.291Z,7.80
2023-05-14T23:51:07.239Z,7.70
2023-05-14T23:53:35.382Z,7.70
2023-05-14T23:56:03.398Z,7.60
2023-05-14T23:58:31.432Z,7.60
